createdAt,value
2022-10-17T06:33:30.000Z,77.185059
2022-10-17T06:33:50.000Z,77.386475
2022-10-17T06:34:11.000Z,77.587891
2022-10-17T06:34:31.000Z,77.587891
2022-10-17T06:34:51.000Z,77.825928
2022-10-17T06:35:11.000Z,77.929688
2022-10-17T06:35:32.000Z,78.027344
2022-10-17T06:35:52.000Z,78.228760
2022-10-17T06:36:12.000Z,78.735352
2022-10-17T06:36:32.000Z,79.174805
2022-10-17T06:36:53.000Z,79.376221
2022-10-17T06:37:13.000Z,79.577637
2022-10-17T06:37:33.000Z,79.681396
2022-10-17T06:37:54.000Z,79.882812
2022-10-17T06:38:14.000Z,80.187988
2022-10-17T06:38:34.000Z,80.426025
2022-10-17T06:38:54.000Z,80.426025
2022-10-17T06:39:15.000Z,80.627441
2022-10-17T06:39:35.000Z,80.731201
2022-10-17T06:39:55.000Z,80.932617
2022-10-17T06:40:15.000Z,81.231689
2022-10-17T06:40:36.000Z,81.475830
2022-10-17T06:40:56.000Z,81.274414
2022-10-17T06:41:16.000Z,81.372070
2022-10-17T06:41:36.000Z,81.982422
2022-10-17T06:41:57.000Z,82.281494
2022-10-17T06:42:17.000Z,82.690430
2022-10-17T06:42:37.000Z,82.788086
2022-10-17T06:42:57.000Z,82.727051
2022-10-17T06:43:18.000Z,82.727051
2022-10-17T06:43:38.000Z,82.623291
2022-10-17T06:43:58.000Z,82.421875
2022-10-17T06:44:18.000Z,82.324219
2022-10-17T13:29:30.000Z,64.660645
2022-10-17T13:29:50.000Z,64.233398
2022-10-17T13:30:15.000Z,63.732910
2022-10-17T13:30:46.000Z,63.830566
2022-10-17T13:31:07.000Z,63.531494
2022-10-17T13:31:27.000Z,63.299561
2022-10-17T13:31:53.000Z,63.104248
2022-10-17T13:32:45.000Z,62.371826
2022-10-17T13:33:05.000Z,62.872314
2022-10-17T13:33:25.000Z,62.274170
2022-10-17T13:33:45.000Z,62.445068
2022-10-17T13:34:06.000Z,62.145996
2022-10-17T13:34:26.000Z,62.115479
2022-10-17T13:34:46.000Z,62.512207
2022-10-17T13:35:06.000Z,61.517334
2022-10-17T13:35:27.000Z,61.114502
2022-10-17T13:35:47.000Z,60.791016
2022-10-17T13:36:07.000Z,61.389160
2022-10-17T13:36:28.000Z,61.883545
2022-10-17T13:36:48.000Z,62.255859
2022-10-17T13:37:08.000Z,61.456299
2022-10-17T13:37:28.000Z,60.559082
2022-10-17T13:37:49.000Z,61.755371
2022-10-17T13:38:09.000Z,60.034180
2022-10-17T13:38:29.000Z,59.533691
2022-10-17T13:38:49.000Z,58.941650
2022-10-17T13:39:10.000Z,58.343506
2022-10-17T13:39:30.000Z,58.312988
2022-10-17T13:39:50.000Z,58.013916
2022-10-17T13:40:10.000Z,58.013916
2022-10-17T13:40:31.000Z,57.916260
2022-10-17T13:40:51.000Z,58.013916
2022-10-17T13:41:11.000Z,58.410645
2022-10-17T13:41:31.000Z,58.612061
2022-10-17T13:41:52.000Z,58.612061
2022-10-17T13:42:12.000Z,58.581543
2022-10-17T13:42:32.000Z,58.013916
2022-10-17T13:42:52.000Z,57.788086
2022-10-17T13:43:13.000Z,57.885742
2022-10-17T13:43:33.000Z,57.788086
2022-10-17T13:43:53.000Z,57.489014
2022-10-17T13:44:14.000Z,57.690430
2022-10-17T13:44:34.000Z,57.489014
2022-10-17T13:44:54.000Z,57.293701
2022-10-17T13:45:14.000Z,57.189941
2022-10-17T13:45:35.000Z,57.293701
2022-10-17T13:45:55.000Z,57.092285
2022-10-17T13:46:15.000Z,57.092285
2022-10-17T13:46:35.000Z,57.092285
2022-10-17T13:46:56.000Z,57.092285
2022-10-17T13:47:16.000Z,57.061768
2022-10-17T13:47:36.000Z,57.165527
2022-10-17T13:47:57.000Z,56.866455
2022-10-17T13:48:17.000Z,56.665039
2022-10-17T13:48:37.000Z,56.665039
2022-10-17T13:48:57.000Z,56.665039
2022-10-17T13:49:18.000Z,56.768799
2022-10-17T13:49:38.000Z,56.866455
2022-10-17T13:49:58.000Z,56.964111
2022-10-17T13:50:18.000Z,57.263184
2022-10-17T13:50:39.000Z,57.464600
2022-10-17T13:50:59.000Z,57.757568
2022-10-17T13:51:19.000Z,58.355713
2022-10-17T13:51:40.000Z,58.752441
2022-10-17T13:52:00.000Z,58.953857
2022-10-17T13:52:20.000Z,59.051514
2022-10-17T13:52:20.000Z,62.481689
2022-10-17T14:01:55.000Z,62.683105
2022-10-17T14:02:15.000Z,62.884521
2022-10-17T14:02:35.000Z,62.780762
2022-10-17T14:02:55.000Z,62.884521
2022-10-17T14:03:16.000Z,62.683105
2022-10-17T14:03:36.000Z,62.384033
2022-10-17T14:03:56.000Z,62.384033
2022-10-17T14:04:05.000Z,63.708496
2022-10-17T14:13:02.000Z,63.812256
2022-10-17T14:13:23.000Z,63.812256
2022-10-17T14:13:43.000Z,63.708496
2022-10-17T14:13:52.000Z,64.538574
2022-10-17T14:22:44.000Z,64.538574
2022-10-17T14:23:04.000Z,64.636230
2022-10-17T14:23:24.000Z,64.739990
2022-10-17T14:23:34.000Z,65.264893
2022-10-17T14:32:33.000Z,65.264893
2022-10-17T14:32:53.000Z,65.368652
2022-10-17T14:33:14.000Z,65.264893
2022-10-17T14:33:23.000Z,65.698242
2022-10-17T14:42:13.000Z,65.698242
2022-10-17T14:42:34.000Z,65.795898
2022-10-17T14:42:54.000Z,65.795898
2022-10-17T14:43:04.000Z,66.198730
2022-10-17T14:52:08.000Z,66.198730
2022-10-17T14:52:28.000Z,66.198730
2022-10-17T14:52:49.000Z,66.198730
2022-10-17T14:52:58.000Z,66.625977
2022-10-17T14:59:29.000Z,66.931152
2022-10-17T14:59:50.000Z,66.729736
2022-10-17T15:00:10.000Z,66.528320
2022-10-17T15:00:30.000Z,66.528320
2022-10-17T15:00:50.000Z,66.625977
2022-10-17T15:01:00.000Z,68.756104
2022-10-17T15:09:54.000Z,68.859863
2022-10-17T15:10:14.000Z,68.859863
2022-10-17T15:10:35.000Z,68.957520
2022-10-17T15:10:54.000Z,70.727539
2022-10-17T15:19:56.000Z,72.131348
2022-10-17T15:20:16.000Z,72.326660
2022-10-17T15:20:37.000Z,71.929932
2022-10-17T15:20:57.000Z,71.728516
2022-10-17T15:21:06.000Z,72.265625
2022-10-17T15:30:14.000Z,72.363281
2022-10-17T15:30:34.000Z,72.363281
2022-10-17T15:30:54.000Z,72.467041
2022-10-17T15:31:04.000Z,73.303223
2022-10-17T15:40:38.000Z,73.400879
2022-10-17T15:40:58.000Z,73.400879
2022-10-17T15:41:19.000Z,73.498535
2022-10-17T15:41:28.000Z,74.035645
2022-10-17T15:51:03.000Z,74.139404
2022-10-17T15:51:23.000Z,74.035645
2022-10-17T15:51:43.000Z,74.035645
2022-10-17T15:51:53.000Z,74.542236
